createdAt,value
2022-09-25T00:02:28.943Z,66.87
2022-09-25T00:07:32.358Z,66.96
2022-09-25T00:12:36.295Z,66.68
2022-09-25T00:17:39.388Z,66.83
2022-09-25T00:22:43.071Z,66.78
2022-09-25T00:27:46.952Z,67.18
2022-09-25T00:32:50.214Z,67.76
2022-09-25T00:37:53.533Z,67.93
2022-09-25T00:42:56.560Z,68.07
2022-09-25T00:48:08.131Z,68.01
2022-09-25T00:53:41.042Z,68.15
2022-09-25T00:58:44.262Z,67.72
2022-09-25T01:03:47.440Z,67.54
2022-09-25T01:08:50.658Z,67.73
2022-09-25T01:14:00.796Z,67.54
2022-09-25T01:19:15.638Z,67.32
2022-09-25T01:24:50.557Z,67.22
2022-09-25T01:30:20.537Z,67.32
2022-09-25T01:35:37.687Z,67.15
2022-09-25T01:40:56.319Z,67.29
2022-09-25T01:46:06.612Z,67.03
2022-09-25T01:51:16.381Z,66.77
2022-09-25T01:56:54.325Z,66.80
2022-09-25T02:02:03.073Z,66.98
2022-09-25T02:07:13.241Z,66.98
2022-09-25T02:12:27.594Z,67.01
2022-09-25T02:17:59.998Z,66.98
2022-09-25T02:23:24.037Z,67.14
2022-09-25T02:28:27.165Z,67.03
2022-09-25T02:33:31.004Z,66.97
2022-09-25T02:38:36.371Z,66.81
2022-09-25T02:43:48.628Z,66.70
2022-09-25T02:49:18.971Z,66.81
2022-09-25T02:54:36.621Z,67.19
2022-09-25T03:00:00.641Z,67.73
2022-09-25T03:05:07.538Z,67.40
2022-09-25T03:10:10.802Z,67.35
2022-09-25T03:15:13.904Z,67.25
2022-09-25T03:20:16.990Z,67.34
2022-09-25T03:25:20.576Z,67.29
2022-09-25T03:30:24.443Z,67.17
2022-09-25T03:35:27.417Z,66.96
2022-09-25T03:40:32.655Z,66.79
2022-09-25T03:45:35.918Z,67.39
2022-09-25T03:50:39.354Z,67.48
2022-09-25T03:55:42.384Z,67.44
2022-09-25T04:00:46.687Z,67.99
2022-09-25T04:05:50.903Z,68.07
2022-09-25T04:10:56.514Z,68.09
2022-09-25T04:16:01.767Z,67.98
2022-09-25T04:21:08.638Z,68.04
2022-09-25T04:26:11.647Z,68.23
2022-09-25T04:31:14.919Z,68.36
2022-09-25T04:36:21.039Z,68.45
2022-09-25T04:41:24.010Z,68.58
2022-09-25T04:46:27.293Z,68.61
2022-09-25T04:51:30.465Z,68.22
2022-09-25T04:56:33.866Z,68.27
2022-09-25T05:01:37.596Z,68.50
2022-09-25T05:06:40.794Z,69.09
2022-09-25T05:11:45.927Z,69.19
2022-09-25T05:16:49.639Z,69.52
2022-09-25T05:21:53.140Z,70.12
2022-09-25T05:26:56.144Z,70.38
2022-09-25T05:31:59.726Z,70.18
2022-09-25T05:37:03.897Z,70.31
2022-09-25T05:42:06.982Z,70.26
2022-09-25T05:47:09.934Z,70.61
2022-09-25T05:52:12.911Z,70.52
2022-09-25T05:57:15.952Z,70.63
2022-09-25T06:02:19.084Z,70.27
2022-09-25T06:07:22.114Z,70.29
2022-09-25T06:12:25.204Z,70.43
2022-09-25T06:17:28.256Z,70.30
2022-09-25T06:22:31.323Z,70.04
2022-09-25T06:27:34.339Z,69.54
2022-09-25T06:32:38.281Z,69.54
2022-09-25T06:37:41.325Z,69.17
2022-09-25T06:42:46.258Z,69.48
2022-09-25T06:47:49.387Z,69.66
2022-09-25T06:52:52.423Z,69.63
2022-09-25T06:57:55.459Z,69.47
2022-09-25T07:03:19.563Z,69.57
2022-09-25T07:08:22.623Z,69.56
2022-09-25T07:13:30.166Z,69.55
2022-09-25T07:18:34.417Z,69.27
2022-09-25T07:23:38.591Z,69.27
2022-09-25T07:28:43.787Z,69.43
2022-09-25T07:33:47.882Z,69.25
2022-09-25T07:38:53.369Z,68.97
2022-09-25T07:44:18.109Z,68.93
2022-09-25T07:49:22.420Z,68.82
2022-09-25T07:54:25.931Z,68.59
2022-09-25T07:59:29.093Z,68.85
2022-09-25T08:04:32.291Z,68.79
2022-09-25T08:09:35.383Z,68.55
2022-09-25T08:14:38.780Z,68.51
2022-09-25T08:19:41.848Z,68.79
2022-09-25T08:24:44.856Z,68.72
2022-09-25T08:29:47.898Z,68.38
2022-09-25T08:34:51.010Z,67.98
2022-09-25T08:39:54.100Z,67.49
2022-09-25T08:45:22.128Z,67.68
2022-09-25T08:50:27.265Z,67.20
2022-09-25T08:56:00.495Z,66.57
2022-09-25T09:01:13.521Z,66.65
2022-09-25T09:06:18.869Z,66.81
2022-09-25T09:11:31.216Z,67.11
2022-09-25T09:17:18.386Z,67.09
2022-09-25T09:22:39.197Z,66.69
2022-09-25T09:28:03.808Z,66.62
2022-09-25T09:33:25.799Z,66.56
2022-09-25T09:39:11.345Z,65.89
2022-09-25T09:44:30.949Z,66.37
2022-09-25T09:49:33.952Z,66.26
2022-09-25T09:54:55.608Z,66.35
2022-09-25T10:00:23.721Z,66.85
2022-09-25T10:05:42.108Z,66.76
2022-09-25T10:10:55.848Z,66.76
2022-09-25T10:16:11.747Z,66.81
2022-09-25T10:21:19.980Z,66.49
2022-09-25T10:26:40.427Z,65.91
2022-09-25T10:31:43.663Z,65.65
2022-09-25T10:36:53.901Z,65.07
2022-09-25T10:41:59.484Z,65.67
2022-09-25T10:47:49.226Z,65.78
2022-09-25T10:53:05.939Z,65.35
2022-09-25T10:58:11.946Z,64.95
2022-09-25T11:03:27.756Z,65.60
2022-09-25T11:08:38.175Z,65.56
2022-09-25T11:13:53.300Z,65.09
2022-09-25T11:19:16.928Z,64.27
2022-09-25T11:24:37.570Z,64.43
2022-09-25T11:30:17.261Z,64.60
2022-09-25T11:36:03.819Z,64.12
2022-09-25T11:41:20.800Z,64.50
2022-09-25T11:46:52.085Z,64.39
2022-09-25T11:52:20.027Z,64.70
2022-09-25T11:57:57.298Z,64.28
2022-09-25T12:03:16.143Z,63.87
2022-09-25T12:08:27.197Z,64.39
2022-09-25T12:13:41.329Z,64.34
2022-09-25T12:19:23.796Z,64.44
2022-09-25T12:24:45.167Z,63.84
2022-09-25T12:30:20.470Z,63.98
2022-09-25T12:35:50.271Z,63.68
2022-09-25T12:41:13.287Z,64.27
2022-09-25T12:46:30.067Z,63.93
2022-09-25T12:51:51.077Z,62.80
2022-09-25T12:57:20.589Z,64.26
2022-09-25T13:03:04.073Z,63.25
2022-09-25T13:08:23.904Z,63.39
2022-09-25T13:13:32.836Z,64.17
2022-09-25T13:18:36.046Z,64.87
2022-09-25T13:23:41.892Z,65.55
2022-09-25T13:29:07.751Z,65.30
2022-09-25T13:34:15.708Z,65.62
2022-09-25T13:39:37.567Z,66.13
2022-09-25T13:44:43.803Z,65.82
2022-09-25T13:50:23.284Z,65.64
2022-09-25T13:55:26.483Z,65.38
2022-09-25T14:00:53.534Z,65.28
2022-09-25T14:05:57.676Z,64.64
2022-09-25T14:11:05.789Z,65.06
2022-09-25T14:16:23.031Z,65.48
2022-09-25T14:21:27.751Z,65.11
2022-09-25T14:26:30.809Z,64.88
2022-09-25T14:31:56.635Z,64.70
2022-09-25T14:37:29.368Z,64.38
2022-09-25T14:43:06.400Z,65.60
2022-09-25T14:48:18.778Z,66.01
2022-09-25T14:53:40.410Z,66.30
2022-09-25T14:58:52.030Z,66.33
2022-09-25T15:04:01.110Z,66.24
2022-09-25T15:09:29.747Z,66.54
2022-09-25T15:14:32.936Z,67.09
2022-09-25T15:19:43.115Z,67.22
2022-09-25T15:24:58.496Z,67.50
2022-09-25T15:30:03.180Z,66.92
2022-09-25T15:35:17.642Z,66.90
2022-09-25T15:40:26.057Z,67.38
2022-09-25T15:45:44.103Z,67.87
2022-09-25T15:50:50.017Z,68.06
2022-09-25T15:56:14.442Z,68.33
2022-09-25T16:01:43.041Z,68.17
2022-09-25T16:06:50.046Z,68.06
2022-09-25T16:11:53.158Z,68.13
2022-09-25T16:16:57.674Z,68.34
2022-09-25T16:22:20.443Z,68.47
2022-09-25T16:27:34.417Z,68.92
2022-09-25T16:32:37.545Z,69.30
2022-09-25T16:37:40.559Z,69.59
2022-09-25T16:42:44.768Z,69.81
2022-09-25T16:47:49.472Z,69.70
2022-09-25T16:52:52.995Z,69.82
2022-09-25T16:57:57.594Z,69.97
2022-09-25T17:03:00.879Z,70.19
2022-09-25T17:08:24.574Z,70.33
2022-09-25T17:13:30.990Z,70.21
2022-09-25T17:18:34.843Z,69.95
2022-09-25T17:23:37.910Z,69.99
2022-09-25T17:28:41.355Z,69.57
2022-09-25T17:33:45.251Z,69.59
2022-09-25T17:38:48.381Z,69.41
2022-09-25T17:43:52.401Z,69.39
2022-09-25T17:48:55.880Z,69.70
2022-09-25T17:53:59.767Z,70.13
2022-09-25T17:59:03.909Z,70.15
2022-09-25T18:04:24.006Z,70.30
2022-09-25T18:09:27.040Z,70.25
2022-09-25T18:14:30.193Z,70.10
2022-09-25T18:19:51.808Z,69.88
2022-09-25T18:24:58.632Z,70.06
2022-09-25T18:30:02.023Z,70.08
2022-09-25T18:35:07.093Z,70.11
2022-09-25T18:40:13.640Z,70.35
2022-09-25T18:45:19.348Z,70.33
2022-09-25T18:50:22.364Z,70.12
2022-09-25T18:55:26.670Z,70.16
2022-09-25T19:00:30.074Z,70.21
2022-09-25T19:05:33.720Z,70.21
2022-09-25T19:10:36.920Z,70.03
2022-09-25T19:15:43.499Z,70.62
2022-09-25T19:20:53.689Z,70.34
2022-09-25T19:26:01.482Z,70.22
2022-09-25T19:31:10.704Z,70.10
2022-09-25T19:36:24.770Z,69.99
2022-09-25T19:41:34.322Z,70.06
2022-09-25T19:46:37.490Z,69.75
2022-09-25T19:51:41.958Z,69.82
2022-09-25T19:56:46.355Z,69.92
2022-09-25T20:01:49.447Z,70.28
2022-09-25T20:06:52.536Z,70.65
2022-09-25T20:11:55.584Z,70.20
2022-09-25T20:16:58.753Z,69.77
2022-09-25T20:22:02.466Z,69.55
2022-09-25T20:27:05.331Z,69.61
2022-09-25T20:32:08.530Z,70.20
2022-09-25T20:37:11.620Z,69.83
2022-09-25T20:42:14.764Z,70.05
2022-09-25T20:47:18.781Z,69.95
2022-09-25T20:52:21.832Z,69.61
2022-09-25T20:57:24.974Z,69.55
2022-09-25T21:02:29.791Z,69.54
2022-09-25T21:07:32.850Z,69.43
2022-09-25T21:12:35.911Z,69.57
2022-09-25T21:17:39.263Z,70.37
2022-09-25T21:22:42.440Z,70.18
2022-09-25T21:27:45.668Z,70.25
2022-09-25T21:32:48.698Z,69.83
2022-09-25T21:37:51.764Z,69.68
2022-09-25T21:42:55.093Z,70.10
2022-09-25T21:47:58.126Z,69.70
2022-09-25T21:53:01.228Z,69.42
2022-09-25T21:58:04.363Z,69.85
2022-09-25T22:03:09.431Z,70.37
2022-09-25T22:08:12.616Z,70.47
2022-09-25T22:13:15.727Z,70.27
2022-09-25T22:18:18.671Z,70.10
2022-09-25T22:23:24.119Z,69.84
2022-09-25T22:28:27.819Z,69.69
2022-09-25T22:33:30.928Z,69.61
2022-09-25T22:38:35.580Z,69.39
2022-09-25T22:43:39.772Z,69.71
2022-09-25T22:48:42.919Z,69.69
2022-09-25T22:53:46.856Z,69.61
2022-09-25T22:58:53.753Z,69.78
2022-09-25T23:04:01.046Z,69.72
2022-09-25T23:09:08.731Z,69.28
2022-09-25T23:14:17.303Z,69.40
2022-09-25T23:19:21.675Z,69.40
2022-09-25T23:24:25.057Z,69.98
2022-09-25T23:29:28.154Z,69.58
2022-09-25T23:34:31.164Z,69.58
2022-09-25T23:39:34.350Z,69.51
2022-09-25T23:44:37.373Z,69.59
2022-09-25T23:49:40.584Z,69.37
2022-09-25T23:54:43.978Z,69.52
2022-09-25T23:59:47.172Z,69.51
